Terminal Aerodrome Forecast
Issued by NWS

Home | Current Version | Previous Version | Text Only | Print | Product List | Glossary On
Versions: 1 2 3 4 5 6 7 8 9 10 11 12 13 14 15 16 17 18 19 20
000
FTUS43 KDVN 241442 AAB
TAFCID
TAF AMD
KCID 241442Z 2415/2512 11012KT P6SM -RA BKN040
      TEMPO 2415/2416 1 1/2SM RA BR OVC030
     FM241800 13010KT 5SM BR OVC008
     FM250500 18011KT 6SM RA BR OVC011=

USA.gov is the U.S. government's official web portal to all federal, state and local government web resources and services.